Time,TemperatureF,DewpointF,PressureIn,WindDirection,WindDirectionDegrees,WindSpeedMPH,WindSpeedGustMPH,Humidity,HourlyPrecipIn,Conditions,Clouds,dailyrainin,SoftwareType,DateUTC
2013-05-20 00:01:00,45.5,43.9,25.37,North,0,0.0,0.0,94,0.00,,---,0.00,VWS V13.01,2013-05-20 06:01:00,
2013-05-20 00:06:00,45.7,44.3,25.37,North,0,0.0,0.0,95,0.00,,---,0.00,VWS V13.01,2013-05-20 06:06:00,
2013-05-20 00:11:00,45.7,44.3,25.37,North,0,0.0,0.0,95,0.00,,---,0.00,VWS V13.01,2013-05-20 06:11:00,
2013-05-20 00:16:00,45.9,44.8,25.37,North,0,0.0,0.0,96,0.00,,---,0.00,VWS V13.01,2013-05-20 06:16:00,
2013-05-20 00:21:00,45.9,44.8,25.37,North,0,0.0,0.0,96,0.00,,---,0.00,VWS V13.01,2013-05-20 06:21:00,
2013-05-20 00:26:00,45.9,45.1,25.37,North,0,0.0,0.0,97,0.00,,---,0.00,VWS V13.01,2013-05-20 06:26:00,
2013-05-20 00:31:00,45.9,45.1,25.37,North,0,0.0,0.0,97,0.00,,---,0.00,VWS V13.01,2013-05-20 06:31:00,
2013-05-20 00:36:00,46.0,45.2,25.37,North,0,0.0,0.0,97,0.00,,---,0.00,VWS V13.01,2013-05-20 06:36:00,
2013-05-20 00:41:00,46.0,45.0,25.37,North,0,0.0,0.0,96,0.04,,---,0.04,VWS V13.01,2013-05-20 06:41:00,
2013-05-20 00:46:00,46.0,45.0,25.37,North,0,0.0,0.0,96,0.04,,---,0.04,VWS V13.01,2013-05-20 06:46:00,
2013-05-20 00:51:00,46.0,44.7,25.37,North,0,0.0,0.0,95,0.04,,---,0.04,VWS V13.01,2013-05-20 06:51:00,
2013-05-20 00:56:00,46.0,44.7,25.37,North,0,0.0,0.0,95,0.04,,---,0.04,VWS V13.01,2013-05-20 06:56:00,
2013-05-20 01:01:00,46.0,44.4,25.37,North,0,0.0,0.0,94,0.04,,---,0.04,VWS V13.01,2013-05-20 07:01:00,
2013-05-20 01:06:00,45.9,44.0,25.37,North,0,0.0,0.0,93,0.04,,---,0.04,VWS V13.01,2013-05-20 07:06:00,
2013-05-20 01:11:00,45.5,43.0,25.34,North,0,0.0,0.0,91,0.04,,---,0.04,VWS V13.01,2013-05-20 07:11:00,
2013-05-20 01:16:00,45.7,43.2,25.34,North,0,0.0,0.0,91,0.04,,---,0.04,VWS V13.01,2013-05-20 07:16:00,
2013-05-20 01:21:00,45.9,43.4,25.34,North,0,0.0,0.0,91,0.04,,---,0.04,VWS V13.01,2013-05-20 07:21:00,
2013-05-20 01:26:00,45.7,43.2,25.34,North,0,0.0,0.0,91,0.04,,---,0.04,VWS V13.01,2013-05-20 07:26:00,
2013-05-20 01:31:00,45.5,43.0,25.34,North,0,0.0,0.0,91,0.04,,---,0.04,VWS V13.01,2013-05-20 07:31:00,
2013-05-20 01:36:00,45.5,42.7,25.34,North,0,0.0,0.0,90,0.04,,---,0.04,VWS V13.01,2013-05-20 07:36:00,
2013-05-20 01:41:00,45.7,42.9,25.34,North,0,0.0,0.0,90,0.00,,---,0.04,VWS V13.01,2013-05-20 07:41:00,
2013-05-20 01:46:00,45.5,43.0,25.34,North,0,0.0,0.0,91,0.00,,---,0.04,VWS V13.01,2013-05-20 07:46:00,
2013-05-20 01:51:00,45.3,42.3,25.34,North,0,0.0,0.0,89,0.00,,---,0.04,VWS V13.01,2013-05-20 07:51:00,
2013-05-20 01:56:00,45.3,41.7,25.34,North,0,0.0,0.0,87,0.00,,---,0.04,VWS V13.01,2013-05-20 07:56:00,
2013-05-20 02:01:00,45.1,41.5,25.34,North,0,0.0,0.0,87,0.00,,---,0.04,VWS V13.01,2013-05-20 08:01:00,
2013-05-20 02:06:00,45.1,41.5,25.34,North,0,0.0,0.0,87,0.00,,---,0.04,VWS V13.01,2013-05-20 08:06:00,
2013-05-20 02:11:00,45.3,41.7,25.34,North,0,0.0,0.0,87,0.00,,---,0.04,VWS V13.01,2013-05-20 08:11:00,
2013-05-20 02:16:00,45.9,41.3,25.34,North,0,0.0,0.0,84,0.00,,---,0.04,VWS V13.01,2013-05-20 08:16:00,
2013-05-20 02:21:00,46.2,40.4,25.34,North,0,0.0,0.0,80,0.00,,---,0.04,VWS V13.01,2013-05-20 08:21:00,
2013-05-20 02:26:00,46.2,39.4,25.34,North,0,0.0,0.0,77,0.00,,---,0.04,VWS V13.01,2013-05-20 08:26:00,
2013-05-20 02:31:00,46.4,39.3,25.34,North,0,0.0,0.0,76,0.00,,---,0.04,VWS V13.01,2013-05-20 08:31:00,
2013-05-20 02:36:00,46.0,38.9,25.34,North,0,0.0,0.0,76,0.00,,---,0.04,VWS V13.01,2013-05-20 08:36:00,
2013-05-20 02:41:00,46.4,38.9,25.34,North,0,0.0,0.0,75,0.00,,---,0.04,VWS V13.01,2013-05-20 08:41:00,
2013-05-20 02:46:00,45.7,38.9,25.34,North,0,0.0,0.0,77,0.00,,---,0.04,VWS V13.01,2013-05-20 08:46:00,
2013-05-20 02:51:00,44.8,39.6,25.34,North,0,0.0,0.0,82,0.00,,---,0.04,VWS V13.01,2013-05-20 08:51:00,
2013-05-20 02:56:00,44.6,40.7,25.34,North,0,0.0,0.0,86,0.00,,---,0.04,VWS V13.01,2013-05-20 08:56:00,
2013-05-20 03:01:00,44.4,41.1,25.34,North,0,0.0,0.0,88,0.00,,---,0.04,VWS V13.01,2013-05-20 09:01:00,
2013-05-20 03:06:00,44.4,41.7,25.34,North,0,0.0,0.0,90,0.00,,---,0.04,VWS V13.01,2013-05-20 09:06:00,
2013-05-20 03:11:00,44.6,41.6,25.34,North,0,0.0,0.0,89,0.00,,---,0.04,VWS V13.01,2013-05-20 09:11:00,
2013-05-20 03:16:00,44.8,41.5,25.34,North,0,0.0,0.0,88,0.00,,---,0.04,VWS V13.01,2013-05-20 09:16:00,
2013-05-20 03:21:00,45.0,41.3,25.34,North,0,0.0,0.0,87,0.00,,---,0.04,VWS V13.01,2013-05-20 09:21:00,
2013-05-20 03:26:00,45.1,40.9,25.34,North,0,0.0,0.0,85,0.00,,---,0.04,VWS V13.01,2013-05-20 09:26:00,
2013-05-20 03:31:00,45.1,40.6,25.34,North,0,0.0,0.0,84,0.00,,---,0.04,VWS V13.01,2013-05-20 09:31:00,
2013-05-20 03:36:00,45.5,40.7,25.34,North,0,0.0,0.0,83,0.00,,---,0.04,VWS V13.01,2013-05-20 09:36:00,
2013-05-20 03:41:00,46.0,41.2,25.34,North,0,0.0,0.0,83,0.00,,---,0.04,VWS V13.01,2013-05-20 09:41:00,
2013-05-20 03:46:00,46.4,40.2,25.34,North,0,0.0,0.0,79,0.00,,---,0.04,VWS V13.01,2013-05-20 09:46:00,
2013-05-20 03:51:00,47.1,39.6,25.34,North,0,0.0,0.0,75,0.00,,---,0.04,VWS V13.01,2013-05-20 09:51:00,
2013-05-20 03:56:00,46.9,39.4,25.34,North,0,0.0,0.0,75,0.00,,---,0.04,VWS V13.01,2013-05-20 09:56:00,
2013-05-20 04:01:00,47.1,39.3,25.34,North,0,0.0,0.0,74,0.00,,---,0.04,VWS V13.01,2013-05-20 10:01:00,
2013-05-20 04:05:00,46.9,39.1,25.34,North,0,0.0,0.0,74,0.00,,---,0.04,VWS V13.01,2013-05-20 10:05:00,
2013-05-20 04:11:00,46.8,38.9,25.31,North,0,0.0,0.0,74,0.00,,---,0.04,VWS V13.01,2013-05-20 10:11:00,
2013-05-20 04:15:00,46.9,39.1,25.31,North,0,0.0,0.0,74,0.00,,---,0.04,VWS V13.01,2013-05-20 10:15:00,
2013-05-20 04:20:00,46.8,38.9,25.31,North,0,0.0,0.0,74,0.00,,---,0.04,VWS V13.01,2013-05-20 10:20:00,
2013-05-20 04:25:00,46.9,39.1,25.31,North,0,0.0,0.0,74,0.00,,---,0.04,VWS V13.01,2013-05-20 10:25:00,
2013-05-20 04:31:00,46.6,39.1,25.31,North,0,0.0,0.0,75,0.00,,---,0.04,VWS V13.01,2013-05-20 10:31:00,
2013-05-20 04:36:00,46.6,39.1,25.31,North,0,0.0,0.0,75,0.00,,---,0.04,VWS V13.01,2013-05-20 10:36:00,
2013-05-20 04:41:00,46.6,39.4,25.31,North,0,0.0,0.0,76,0.00,,---,0.04,VWS V13.01,2013-05-20 10:41:00,
2013-05-20 04:46:00,46.6,39.1,25.31,North,0,0.0,0.0,75,0.00,,---,0.04,VWS V13.01,2013-05-20 10:46:00,
2013-05-20 04:51:00,46.2,39.1,25.31,North,0,0.0,0.0,76,0.00,,---,0.04,VWS V13.01,2013-05-20 10:51:00,
2013-05-20 04:56:00,45.5,39.0,25.31,North,0,0.0,0.0,78,0.00,,---,0.04,VWS V13.01,2013-05-20 10:56:00,
2013-05-20 05:01:00,45.1,39.0,25.31,North,0,0.0,0.0,79,0.00,,---,0.04,VWS V13.01,2013-05-20 11:01:00,
2013-05-20 05:06:00,45.3,39.5,25.31,North,0,0.0,0.0,80,0.00,,---,0.04,VWS V13.01,2013-05-20 11:06:00,
2013-05-20 05:10:00,45.9,39.4,25.31,North,0,0.0,0.0,78,0.00,,---,0.04,VWS V13.01,2013-05-20 11:10:00,
2013-05-20 05:15:00,45.9,38.7,25.31,North,0,0.0,0.0,76,0.00,,---,0.04,VWS V13.01,2013-05-20 11:15:00,
2013-05-20 05:20:00,45.9,38.7,25.31,North,0,0.0,0.0,76,0.00,,---,0.04,VWS V13.01,2013-05-20 11:20:00,
2013-05-20 05:25:00,46.0,38.2,25.34,North,0,0.0,0.0,74,0.00,,---,0.04,VWS V13.01,2013-05-20 11:25:00,
2013-05-20 05:30:00,46.0,38.2,25.34,North,0,0.0,0.0,74,0.00,,---,0.04,VWS V13.01,2013-05-20 11:30:00,
2013-05-20 05:35:00,45.9,38.4,25.34,North,0,0.0,0.0,75,0.00,,---,0.04,VWS V13.01,2013-05-20 11:35:00,
2013-05-20 05:40:00,46.0,38.6,25.31,North,0,0.0,0.0,75,0.00,,---,0.04,VWS V13.01,2013-05-20 11:40:00,
2013-05-20 05:45:00,46.2,38.8,25.31,North,0,0.0,0.0,75,0.00,,---,0.04,VWS V13.01,2013-05-20 11:45:00,
2013-05-20 05:50:00,46.4,38.6,25.31,North,0,0.0,0.0,74,0.00,,---,0.04,VWS V13.01,2013-05-20 11:50:00,
2013-05-20 05:55:00,46.4,38.6,25.34,North,0,0.0,0.0,74,0.00,,---,0.04,VWS V13.01,2013-05-20 11:55:00,
2013-05-20 06:00:00,46.4,38.6,25.34,North,0,0.0,0.0,74,0.00,,---,0.04,VWS V13.01,2013-05-20 12:00:00,
2013-05-20 06:05:00,45.9,37.7,25.34,North,0,0.0,0.0,73,0.00,,---,0.04,VWS V13.01,2013-05-20 12:05:00,
2013-05-20 06:10:00,45.5,37.7,25.34,North,0,0.0,0.0,74,0.00,,---,0.04,VWS V13.01,2013-05-20 12:10:00,
2013-05-20 06:15:00,45.7,38.2,25.34,North,0,0.0,0.0,75,0.00,,---,0.04,VWS V13.01,2013-05-20 12:15:00,
2013-05-20 06:20:00,45.9,38.0,25.34,North,0,0.0,0.0,74,0.00,,---,0.04,VWS V13.01,2013-05-20 12:20:00,
2013-05-20 06:25:00,45.9,38.0,25.34,North,0,0.0,0.0,74,0.00,,---,0.04,VWS V13.01,2013-05-20 12:25:00,
2013-05-20 06:30:00,45.9,38.4,25.34,North,0,0.0,0.0,75,0.00,,---,0.04,VWS V13.01,2013-05-20 12:30:00,
2013-05-20 06:35:00,45.9,38.4,25.34,North,0,0.0,0.0,75,0.00,,---,0.04,VWS V13.01,2013-05-20 12:35:00,
2013-05-20 06:40:00,46.0,38.2,25.34,North,0,0.0,0.0,74,0.00,,---,0.04,VWS V13.01,2013-05-20 12:40:00,
2013-05-20 06:46:00,46.2,38.4,25.34,North,0,0.0,0.0,74,0.00,,---,0.04,VWS V13.01,2013-05-20 12:46:00,
2013-05-20 06:51:00,46.9,38.8,25.34,North,0,0.0,0.0,73,0.00,,---,0.04,VWS V13.01,2013-05-20 12:51:00,
2013-05-20 06:56:00,47.7,37.3,25.34,North,0,0.0,0.0,67,0.00,,---,0.04,VWS V13.01,2013-05-20 12:56:00,
2013-05-20 07:00:00,47.5,36.7,25.34,North,0,0.0,0.0,66,0.00,,---,0.04,VWS V13.01,2013-05-20 13:00:00,
2013-05-20 07:05:00,47.3,37.3,25.34,North,0,0.0,0.0,68,0.00,,---,0.04,VWS V13.01,2013-05-20 13:05:00,
2013-05-20 07:10:00,46.9,37.7,25.34,North,0,0.0,0.0,70,0.00,,---,0.04,VWS V13.01,2013-05-20 13:10:00,
2013-05-20 07:15:00,46.9,38.0,25.34,North,0,0.0,0.0,71,0.00,,---,0.04,VWS V13.01,2013-05-20 13:15:00,
2013-05-20 07:20:00,47.3,38.0,25.34,North,0,0.0,0.0,70,0.00,,---,0.04,VWS V13.01,2013-05-20 13:20:00,
2013-05-20 07:25:00,47.7,37.6,25.34,North,0,0.0,0.0,68,0.00,,---,0.04,VWS V13.01,2013-05-20 13:25:00,
2013-05-20 07:30:00,48.0,37.2,25.34,North,0,0.0,0.0,66,0.00,,---,0.04,VWS V13.01,2013-05-20 13:30:00,
2013-05-20 07:35:00,48.0,37.6,25.34,North,0,0.0,0.0,67,0.00,,---,0.04,VWS V13.01,2013-05-20 13:35:00,
2013-05-20 07:40:00,48.0,38.0,25.37,North,0,0.0,0.0,68,0.00,,---,0.04,VWS V13.01,2013-05-20 13:40:00,
2013-05-20 07:45:00,48.2,38.2,25.37,North,0,0.0,0.0,68,0.00,,---,0.04,VWS V13.01,2013-05-20 13:45:00,
2013-05-20 07:50:00,47.3,38.0,25.37,North,0,0.0,0.0,70,0.00,,---,0.04,VWS V13.01,2013-05-20 13:50:00,
2013-05-20 07:55:00,47.1,38.6,25.37,North,0,0.0,0.0,72,0.00,,---,0.04,VWS V13.01,2013-05-20 13:55:00,
2013-05-20 08:00:00,47.8,38.9,25.37,North,0,0.0,0.0,71,0.00,,---,0.04,VWS V13.01,2013-05-20 14:00:00,
2013-05-20 08:05:00,48.7,39.0,25.37,North,0,0.0,0.0,69,0.00,,---,0.04,VWS V13.01,2013-05-20 14:05:00,
2013-05-20 08:10:00,48.7,38.7,25.37,North,0,0.0,0.0,68,0.00,,---,0.04,VWS V13.01,2013-05-20 14:10:00,
2013-05-20 08:15:00,48.6,38.9,25.37,North,0,0.0,0.0,69,0.00,,---,0.04,VWS V13.01,2013-05-20 14:15:00,
2013-05-20 08:20:00,48.7,38.7,25.37,North,0,0.0,0.0,68,0.00,,---,0.04,VWS V13.01,2013-05-20 14:20:00,
2013-05-20 08:25:00,48.7,38.7,25.37,North,0,0.0,0.0,68,0.00,,---,0.04,VWS V13.01,2013-05-20 14:25:00,
2013-05-20 08:30:00,48.6,38.9,25.37,North,0,0.0,0.0,69,0.00,,---,0.04,VWS V13.01,2013-05-20 14:30:00,
2013-05-20 08:35:00,48.7,39.0,25.37,North,0,0.0,0.0,69,0.00,,---,0.04,VWS V13.01,2013-05-20 14:35:00,
2013-05-20 08:40:00,48.7,39.4,25.37,North,0,0.0,0.0,70,0.00,,---,0.04,VWS V13.01,2013-05-20 14:40:00,
2013-05-20 08:45:00,49.3,39.5,25.37,North,0,0.0,0.0,69,0.00,,---,0.04,VWS V13.01,2013-05-20 14:45:00,
2013-05-20 08:50:00,48.9,38.8,25.37,North,0,0.0,0.0,68,0.00,,---,0.04,VWS V13.01,2013-05-20 14:50:00,
2013-05-20 08:55:00,48.9,38.5,25.37,North,0,0.0,0.0,67,0.00,,---,0.04,VWS V13.01,2013-05-20 14:55:00,
2013-05-20 09:00:00,50.4,39.1,25.37,North,0,0.0,0.0,65,0.00,,---,0.04,VWS V13.01,2013-05-20 15:00:00,
2013-05-20 09:05:00,50.9,38.8,25.37,North,0,0.0,0.0,63,0.00,,---,0.04,VWS V13.01,2013-05-20 15:05:00,
2013-05-20 09:10:00,50.7,37.8,25.37,North,0,0.0,0.0,61,0.00,,---,0.04,VWS V13.01,2013-05-20 15:10:00,
2013-05-20 09:15:00,52.2,38.7,25.37,North,0,0.0,0.0,60,0.00,,---,0.04,VWS V13.01,2013-05-20 15:15:00,
2013-05-20 09:20:00,52.2,38.3,25.37,North,0,0.0,0.0,59,0.00,,---,0.04,VWS V13.01,2013-05-20 15:20:00,
2013-05-20 09:25:00,51.4,38.0,25.37,North,0,0.0,0.0,60,0.00,,---,0.04,VWS V13.01,2013-05-20 15:25:00,
2013-05-20 09:30:00,51.6,39.0,25.37,North,0,0.0,0.0,62,0.00,,---,0.04,VWS V13.01,2013-05-20 15:30:00,
2013-05-20 09:35:00,51.6,38.6,25.37,North,0,0.0,0.0,61,0.00,,---,0.04,VWS V13.01,2013-05-20 15:35:00,
2013-05-20 09:40:00,52.0,38.1,25.37,North,0,0.0,0.0,59,0.00,,---,0.04,VWS V13.01,2013-05-20 15:40:00,
2013-05-20 09:45:00,56.3,38.9,25.37,North,0,0.0,0.0,52,0.00,,---,0.04,VWS V13.01,2013-05-20 15:45:00,
2013-05-20 09:50:00,56.3,36.3,25.37,North,0,0.0,0.0,47,0.00,,---,0.04,VWS V13.01,2013-05-20 15:50:00,
2013-05-20 09:55:00,57.0,37.0,25.37,North,0,0.0,0.0,47,0.00,,---,0.04,VWS V13.01,2013-05-20 15:55:00,
2013-05-20 10:00:00,56.8,35.2,25.37,North,0,0.0,0.0,44,0.00,,---,0.04,VWS V13.01,2013-05-20 16:00:00,
2013-05-20 10:05:00,54.7,36.9,25.37,North,0,0.0,0.0,51,0.00,,---,0.04,VWS V13.01,2013-05-20 16:05:00,
2013-05-20 10:10:00,55.8,36.9,25.37,North,0,0.0,0.0,49,0.00,,---,0.04,VWS V13.01,2013-05-20 16:10:00,
2013-05-20 10:15:00,58.5,37.8,25.37,North,0,0.0,0.0,46,0.00,,---,0.04,VWS V13.01,2013-05-20 16:15:00,
2013-05-20 10:20:00,56.5,36.0,25.37,North,0,0.0,0.0,46,0.00,,---,0.04,VWS V13.01,2013-05-20 16:20:00,
2013-05-20 10:25:00,58.5,36.1,25.40,North,0,0.0,0.0,43,0.00,,---,0.04,VWS V13.01,2013-05-20 16:25:00,
2013-05-20 10:30:00,56.3,36.3,25.40,North,0,0.0,0.0,47,0.00,,---,0.04,VWS V13.01,2013-05-20 16:30:00,
2013-05-20 10:35:00,53.2,37.0,25.40,North,0,0.0,0.0,54,0.00,,---,0.04,VWS V13.01,2013-05-20 16:35:00,
2013-05-20 10:40:00,52.5,38.2,25.40,North,0,0.0,0.0,58,0.00,,---,0.04,VWS V13.01,2013-05-20 16:40:00,
2013-05-20 10:45:00,51.8,38.4,25.40,North,0,0.0,0.0,60,0.00,,---,0.04,VWS V13.01,2013-05-20 16:45:00,
2013-05-20 10:50:00,48.7,39.4,25.40,North,0,0.0,0.0,70,0.00,,---,0.04,VWS V13.01,2013-05-20 16:50:00,
2013-05-20 10:55:00,48.7,39.8,25.43,North,0,0.0,0.0,71,0.00,,---,0.04,VWS V13.01,2013-05-20 16:55:00,
2013-05-20 11:00:00,49.3,39.2,25.43,North,0,0.0,0.0,68,0.00,,---,0.04,VWS V13.01,2013-05-20 17:00:00,
2013-05-20 11:05:00,54.0,40.0,25.43,North,0,0.0,0.0,59,0.00,,---,0.04,VWS V13.01,2013-05-20 17:05:00,
2013-05-20 11:10:00,52.7,36.5,25.43,North,0,0.0,0.0,54,0.00,,---,0.04,VWS V13.01,2013-05-20 17:10:00,
2013-05-20 11:15:00,52.2,38.3,25.43,North,0,0.0,0.0,59,0.00,,---,0.04,VWS V13.01,2013-05-20 17:15:00,
2013-05-20 11:20:00,54.0,38.2,25.43,North,0,0.0,0.0,55,0.00,,---,0.04,VWS V13.01,2013-05-20 17:20:00,
2013-05-20 11:25:00,54.1,37.4,25.43,North,0,0.0,0.0,53,0.00,,---,0.04,VWS V13.01,2013-05-20 17:25:00,
2013-05-20 11:30:00,53.8,39.4,25.43,North,0,0.0,0.0,58,0.00,,---,0.04,VWS V13.01,2013-05-20 17:30:00,
2013-05-20 11:35:00,50.7,40.2,25.43,North,0,0.0,0.0,67,0.00,,---,0.04,VWS V13.01,2013-05-20 17:35:00,
2013-05-20 11:40:00,51.1,40.9,25.43,North,0,0.0,0.0,68,0.00,,---,0.04,VWS V13.01,2013-05-20 17:40:00,
2013-05-20 11:45:00,50.7,40.2,25.43,North,0,0.0,0.0,67,0.00,,---,0.04,VWS V13.01,2013-05-20 17:45:00,
2013-05-20 11:50:00,53.1,41.6,25.43,North,0,0.0,0.0,65,0.00,,---,0.04,VWS V13.01,2013-05-20 17:50:00,
2013-05-20 11:55:00,53.8,37.5,25.43,North,0,0.0,0.0,54,0.00,,---,0.04,VWS V13.01,2013-05-20 17:55:00,
2013-05-20 12:00:00,52.9,39.8,25.43,North,0,0.0,0.0,61,0.00,,---,0.04,VWS V13.01,2013-05-20 18:00:00,
2013-05-20 12:05:00,53.1,40.4,25.43,North,0,0.0,0.0,62,0.00,,---,0.04,VWS V13.01,2013-05-20 18:05:00,
2013-05-20 12:10:00,55.2,37.9,25.43,North,0,0.0,0.0,52,0.00,,---,0.04,VWS V13.01,2013-05-20 18:10:00,
2013-05-20 12:15:00,56.1,37.2,25.43,North,0,0.0,0.0,49,0.00,,---,0.04,VWS V13.01,2013-05-20 18:15:00,
2013-05-20 12:20:00,55.0,36.2,25.43,North,0,0.0,0.0,49,0.00,,---,0.04,VWS V13.01,2013-05-20 18:20:00,
2013-05-20 12:25:00,55.6,37.8,25.43,North,0,0.0,0.0,51,0.00,,---,0.04,VWS V13.01,2013-05-20 18:25:00,
2013-05-20 12:30:00,54.3,36.1,25.43,North,0,0.0,0.0,50,0.00,,---,0.04,VWS V13.01,2013-05-20 18:30:00,
2013-05-20 12:35:00,54.0,36.8,25.43,North,0,0.0,0.0,52,0.00,,---,0.04,VWS V13.01,2013-05-20 18:35:00,
2013-05-20 12:40:00,53.8,37.1,25.43,North,0,0.0,0.0,53,0.00,,---,0.04,VWS V13.01,2013-05-20 18:40:00,
2013-05-20 12:45:00,54.5,36.8,25.43,North,0,0.0,0.0,51,0.00,,---,0.04,VWS V13.01,2013-05-20 18:45:00,
2013-05-20 12:50:00,54.9,37.1,25.43,North,0,0.0,0.0,51,0.00,,---,0.04,VWS V13.01,2013-05-20 18:50:00,
2013-05-20 12:55:00,54.0,36.3,25.43,North,0,0.0,0.0,51,0.00,,---,0.04,VWS V13.01,2013-05-20 18:55:00,
2013-05-20 13:00:00,54.1,37.9,25.43,North,0,0.0,0.0,54,0.00,,---,0.04,VWS V13.01,2013-05-20 19:00:00,
2013-05-20 13:05:00,53.1,37.3,25.43,North,0,0.0,0.0,55,0.00,,---,0.04,VWS V13.01,2013-05-20 19:05:00,
2013-05-20 13:10:00,52.7,37.9,25.45,North,0,0.0,0.0,57,0.00,,---,0.04,VWS V13.01,2013-05-20 19:10:00,
2013-05-20 13:15:00,51.8,37.1,25.45,North,0,0.0,0.0,57,0.00,,---,0.04,VWS V13.01,2013-05-20 19:15:00,
2013-05-20 13:20:00,51.6,38.2,25.45,North,0,0.0,0.0,60,0.00,,---,0.04,VWS V13.01,2013-05-20 19:20:00,
2013-05-20 13:25:00,52.2,37.4,25.45,North,0,0.0,0.0,57,0.00,,---,0.04,VWS V13.01,2013-05-20 19:25:00,
2013-05-20 13:30:00,51.8,37.5,25.45,North,0,0.0,0.0,58,0.00,,---,0.04,VWS V13.01,2013-05-20 19:30:00,
2013-05-20 13:35:00,51.4,37.2,25.45,North,0,0.0,0.0,58,0.00,,---,0.04,VWS V13.01,2013-05-20 19:35:00,
2013-05-20 13:40:00,52.7,38.3,25.45,North,0,0.0,0.0,58,0.00,,---,0.04,VWS V13.01,2013-05-20 19:40:00,
2013-05-20 13:45:00,53.2,37.5,25.45,North,0,0.0,0.0,55,0.00,,---,0.04,VWS V13.01,2013-05-20 19:45:00,
2013-05-20 13:50:00,53.2,37.0,25.45,North,0,0.0,0.0,54,0.00,,---,0.04,VWS V13.01,2013-05-20 19:50:00,
2013-05-20 13:55:00,53.1,36.9,25.45,North,0,0.0,0.0,54,0.00,,---,0.04,VWS V13.01,2013-05-20 19:55:00,
2013-05-20 14:00:00,53.6,37.8,25.45,North,0,0.0,0.0,55,0.00,,---,0.04,VWS V13.01,2013-05-20 20:00:00,
2013-05-20 14:05:00,54.1,38.3,25.45,North,0,0.0,0.0,55,0.00,,---,0.04,VWS V13.01,2013-05-20 20:05:00,
2013-05-20 14:10:00,54.1,37.9,25.45,North,0,0.0,0.0,54,0.00,,---,0.04,VWS V13.01,2013-05-20 20:10:00,
2013-05-20 14:15:00,54.7,37.4,25.45,North,0,0.0,0.0,52,0.00,,---,0.04,VWS V13.01,2013-05-20 20:15:00,
2013-05-20 14:20:00,54.0,37.7,25.45,North,0,0.0,0.0,54,0.00,,---,0.04,VWS V13.01,2013-05-20 20:20:00,
2013-05-20 14:25:00,54.5,37.2,25.45,North,0,0.0,0.0,52,0.00,,---,0.04,VWS V13.01,2013-05-20 20:25:00,
2013-05-20 14:30:00,53.8,36.6,25.45,North,0,0.0,0.0,52,0.00,,---,0.04,VWS V13.01,2013-05-20 20:30:00,
2013-05-20 14:35:00,54.9,38.1,25.45,North,0,0.0,0.0,53,0.00,,---,0.04,VWS V13.01,2013-05-20 20:35:00,
2013-05-20 14:40:00,54.9,38.1,25.45,North,0,0.0,0.0,53,0.00,,---,0.04,VWS V13.01,2013-05-20 20:40:00,
2013-05-20 14:45:00,54.7,37.9,25.45,North,0,0.0,0.0,53,0.00,,---,0.04,VWS V13.01,2013-05-20 20:45:00,
2013-05-20 14:50:00,55.4,38.1,25.45,North,0,0.0,0.0,52,0.00,,---,0.04,VWS V13.01,2013-05-20 20:50:00,
2013-05-20 14:55:00,56.3,37.9,25.45,North,0,0.0,0.0,50,0.00,,---,0.04,VWS V13.01,2013-05-20 20:55:00,
2013-05-20 15:00:00,55.9,37.6,25.45,North,0,0.0,0.0,50,0.00,,---,0.04,VWS V13.01,2013-05-20 21:00:00,
2013-05-20 15:05:00,57.2,38.8,25.45,North,0,0.0,0.0,50,0.00,,---,0.04,VWS V13.01,2013-05-20 21:05:00,
2013-05-20 15:10:00,56.5,37.0,25.45,North,0,0.0,0.0,48,0.00,,---,0.04,VWS V13.01,2013-05-20 21:10:00,
2013-05-20 15:15:00,57.2,38.2,25.45,North,0,0.0,0.0,49,0.00,,---,0.04,VWS V13.01,2013-05-20 21:15:00,
2013-05-20 15:20:00,55.8,37.4,25.45,North,0,0.0,0.0,50,0.00,,---,0.04,VWS V13.01,2013-05-20 21:20:00,
2013-05-20 15:25:00,57.6,38.0,25.45,North,0,0.0,0.0,48,0.00,,---,0.04,VWS V13.01,2013-05-20 21:25:00,
2013-05-20 15:30:00,58.5,37.2,25.45,North,0,0.0,0.0,45,0.00,,---,0.04,VWS V13.01,2013-05-20 21:30:00,
2013-05-20 15:35:00,58.8,37.5,25.45,North,0,0.0,0.0,45,0.00,,---,0.04,VWS V13.01,2013-05-20 21:35:00,
2013-05-20 15:40:00,61.5,39.4,25.45,North,0,0.0,0.0,44,0.00,,---,0.04,VWS V13.01,2013-05-20 21:40:00,
2013-05-20 15:45:00,59.4,38.0,25.45,North,0,0.0,0.0,45,0.00,,---,0.04,VWS V13.01,2013-05-20 21:45:00,
2013-05-20 15:50:00,55.6,36.2,25.45,North,0,0.0,0.0,48,0.00,,---,0.04,VWS V13.01,2013-05-20 21:50:00,
2013-05-20 15:55:00,54.5,37.7,25.45,North,0,0.0,0.0,53,0.00,,---,0.04,VWS V13.01,2013-05-20 21:55:00,
2013-05-20 16:00:00,53.4,37.7,25.45,North,0,0.0,0.0,55,0.00,,---,0.04,VWS V13.01,2013-05-20 22:00:00,
2013-05-20 16:05:00,53.2,37.0,25.45,North,0,0.0,0.0,54,0.00,,---,0.04,VWS V13.01,2013-05-20 22:05:00,
2013-05-20 16:10:00,54.5,36.8,25.45,North,0,0.0,0.0,51,0.00,,---,0.04,VWS V13.01,2013-05-20 22:10:00,
2013-05-20 16:15:00,55.4,37.1,25.45,North,0,0.0,0.0,50,0.00,,---,0.04,VWS V13.01,2013-05-20 22:15:00,
2013-05-20 16:20:00,55.4,37.6,25.45,North,0,0.0,0.0,51,0.00,,---,0.04,VWS V13.01,2013-05-20 22:20:00,
2013-05-20 16:25:00,55.9,37.1,25.45,North,0,0.0,0.0,49,0.00,,---,0.04,VWS V13.01,2013-05-20 22:25:00,
2013-05-20 16:30:00,56.1,38.3,25.45,North,0,0.0,0.0,51,0.00,,---,0.04,VWS V13.01,2013-05-20 22:30:00,
2013-05-20 16:35:00,57.0,37.5,25.45,North,0,0.0,0.0,48,0.00,,---,0.04,VWS V13.01,2013-05-20 22:35:00,
2013-05-20 16:40:00,55.6,36.7,25.45,North,0,0.0,0.0,49,0.00,,---,0.04,VWS V13.01,2013-05-20 22:40:00,
2013-05-20 16:45:00,55.4,37.1,25.45,North,0,0.0,0.0,50,0.00,,---,0.04,VWS V13.01,2013-05-20 22:45:00,
2013-05-20 16:50:00,55.8,36.9,25.45,North,0,0.0,0.0,49,0.00,,---,0.04,VWS V13.01,2013-05-20 22:50:00,
2013-05-20 16:55:00,54.7,36.9,25.45,North,0,0.0,0.0,51,0.00,,---,0.04,VWS V13.01,2013-05-20 22:55:00,
2013-05-20 17:00:00,54.1,36.4,25.45,North,0,0.0,0.0,51,0.00,,---,0.04,VWS V13.01,2013-05-20 23:00:00,
2013-05-20 17:05:00,53.1,37.8,25.45,North,0,0.0,0.0,56,0.00,,---,0.04,VWS V13.01,2013-05-20 23:05:00,
2013-05-20 17:10:00,54.5,38.7,25.45,North,0,0.0,0.0,55,0.00,,---,0.04,VWS V13.01,2013-05-20 23:10:00,
2013-05-20 17:15:00,52.9,37.2,25.45,North,0,0.0,0.0,55,0.00,,---,0.04,VWS V13.01,2013-05-20 23:15:00,
2013-05-20 17:20:00,52.2,37.4,25.45,North,0,0.0,0.0,57,0.00,,---,0.04,VWS V13.01,2013-05-20 23:20:00,
2013-05-20 17:25:00,51.4,38.9,25.45,North,0,0.0,0.0,62,0.00,,---,0.04,VWS V13.01,2013-05-20 23:25:00,
2013-05-20 17:30:00,51.3,38.3,25.45,North,0,0.0,0.0,61,0.00,,---,0.04,VWS V13.01,2013-05-20 23:30:00,
2013-05-20 17:35:00,50.9,38.0,25.45,North,0,0.0,0.0,61,0.00,,---,0.04,VWS V13.01,2013-05-20 23:35:00,
2013-05-20 17:40:00,51.4,38.9,25.45,North,0,0.0,0.0,62,0.00,,---,0.04,VWS V13.01,2013-05-20 23:40:00,
2013-05-20 17:45:00,51.3,37.9,25.48,North,0,0.0,0.0,60,0.00,,---,0.04,VWS V13.01,2013-05-20 23:45:00,
2013-05-20 17:50:00,51.3,37.9,25.48,North,0,0.0,0.0,60,0.00,,---,0.04,VWS V13.01,2013-05-20 23:50:00,
2013-05-20 17:55:00,48.9,37.3,25.48,North,0,0.0,0.0,64,0.00,,---,0.04,VWS V13.01,2013-05-20 23:55:00,
2013-05-20 18:00:00,47.3,39.1,25.48,North,0,0.0,0.0,73,0.00,,---,0.04,VWS V13.01,2013-05-21 00:00:00,
2013-05-20 18:05:00,46.4,39.9,25.48,North,0,0.0,0.0,78,0.00,,---,0.04,VWS V13.01,2013-05-21 00:05:00,
2013-05-20 18:10:00,46.2,41.3,25.48,North,0,0.0,0.0,83,0.00,,---,0.04,VWS V13.01,2013-05-21 00:10:00,
2013-05-20 18:15:00,46.4,42.1,25.48,North,0,0.0,0.0,85,0.00,,---,0.04,VWS V13.01,2013-05-21 00:15:00,
2013-05-20 18:20:00,45.9,41.3,25.48,North,0,0.0,0.0,84,0.00,,---,0.04,VWS V13.01,2013-05-21 00:20:00,
2013-05-20 18:25:00,45.7,41.4,25.48,North,0,0.0,0.0,85,0.00,,---,0.04,VWS V13.01,2013-05-21 00:25:00,
2013-05-20 18:30:00,45.7,41.7,25.48,North,0,0.0,0.0,86,0.00,,---,0.04,VWS V13.01,2013-05-21 00:30:00,
2013-05-20 18:35:00,45.7,42.0,25.48,North,0,0.0,0.0,87,0.00,,---,0.04,VWS V13.01,2013-05-21 00:35:00,
2013-05-20 18:40:00,45.5,42.2,25.48,North,0,0.0,0.0,88,0.00,,---,0.04,VWS V13.01,2013-05-21 00:40:00,
2013-05-20 18:45:00,45.5,42.7,25.48,North,0,0.0,0.0,90,0.00,,---,0.04,VWS V13.01,2013-05-21 00:45:00,
2013-05-20 18:50:00,45.3,42.6,25.48,North,0,0.0,0.0,90,0.00,,---,0.04,VWS V13.01,2013-05-21 00:50:00,
2013-05-20 18:55:00,45.1,41.8,25.48,North,0,0.0,0.0,88,0.00,,---,0.04,VWS V13.01,2013-05-21 00:55:00,
2013-05-20 19:00:00,45.0,41.9,25.48,North,0,0.0,0.0,89,0.00,,---,0.04,VWS V13.01,2013-05-21 01:00:00,
2013-05-20 19:05:00,44.8,41.5,25.48,North,0,0.0,0.0,88,0.00,,---,0.04,VWS V13.01,2013-05-21 01:05:00,
2013-05-20 19:10:00,44.8,41.7,25.48,North,0,0.0,0.0,89,0.00,,---,0.04,VWS V13.01,2013-05-21 01:10:00,
2013-05-20 19:15:00,44.8,41.7,25.48,North,0,0.0,0.0,89,0.00,,---,0.04,VWS V13.01,2013-05-21 01:15:00,
2013-05-20 19:20:00,44.8,42.0,25.48,North,0,0.0,0.0,90,0.00,,---,0.04,VWS V13.01,2013-05-21 01:20:00,
2013-05-20 19:25:00,45.0,42.5,25.48,North,0,0.0,0.0,91,0.00,,---,0.04,VWS V13.01,2013-05-21 01:25:00,
2013-05-20 19:30:00,45.0,42.8,25.48,North,0,0.0,0.0,92,0.00,,---,0.04,VWS V13.01,2013-05-21 01:30:00,
2013-05-20 19:35:00,44.8,42.9,25.48,North,0,0.0,0.0,93,0.04,,---,0.08,VWS V13.01,2013-05-21 01:35:00,
2013-05-20 19:40:00,44.8,43.2,25.48,North,0,0.0,0.0,94,0.04,,---,0.08,VWS V13.01,2013-05-21 01:40:00,
2013-05-20 19:45:00,44.1,42.5,25.51,North,0,0.0,0.0,94,0.04,,---,0.08,VWS V13.01,2013-05-21 01:45:00,
2013-05-20 19:50:00,43.5,41.6,25.51,North,0,0.0,0.0,93,0.04,,---,0.08,VWS V13.01,2013-05-21 01:50:00,
2013-05-20 19:55:00,43.5,41.6,25.51,North,0,0.0,0.0,93,0.04,,---,0.08,VWS V13.01,2013-05-21 01:55:00,
2013-05-20 20:00:00,43.3,41.7,25.51,North,0,0.0,0.0,94,0.04,,---,0.08,VWS V13.01,2013-05-21 02:00:00,
2013-05-20 20:05:00,43.3,42.0,25.51,North,0,0.0,0.0,95,0.04,,---,0.08,VWS V13.01,2013-05-21 02:05:00,
2013-05-20 20:10:00,43.3,42.0,25.51,North,0,0.0,0.0,95,0.04,,---,0.08,VWS V13.01,2013-05-21 02:10:00,
2013-05-20 20:15:00,43.5,42.5,25.51,North,0,0.0,0.0,96,0.04,,---,0.08,VWS V13.01,2013-05-21 02:15:00,
2013-05-20 20:20:00,43.3,42.0,25.51,North,0,0.0,0.0,95,0.04,,---,0.08,VWS V13.01,2013-05-21 02:20:00,
2013-05-20 20:25:00,43.3,42.0,25.51,North,0,0.0,0.0,95,0.04,,---,0.08,VWS V13.01,2013-05-21 02:25:00,
2013-05-20 20:30:00,43.2,41.8,25.51,North,0,0.0,0.0,95,0.04,,---,0.08,VWS V13.01,2013-05-21 02:30:00,
2013-05-20 20:35:00,43.0,41.7,25.51,North,0,0.0,0.0,95,0.04,,---,0.08,VWS V13.01,2013-05-21 02:35:00,
2013-05-20 20:40:00,42.8,41.5,25.51,North,0,0.0,0.0,95,0.04,,---,0.08,VWS V13.01,2013-05-21 02:40:00,
2013-05-20 20:45:00,42.8,41.7,25.51,North,0,0.0,0.0,96,0.00,,---,0.08,VWS V13.01,2013-05-21 02:45:00,
2013-05-20 20:50:00,42.6,41.6,25.51,North,0,0.0,0.0,96,0.00,,---,0.08,VWS V13.01,2013-05-21 02:50:00,
2013-05-20 20:55:00,42.8,41.7,25.51,North,0,0.0,0.0,96,0.00,,---,0.08,VWS V13.01,2013-05-21 02:55:00,
2013-05-20 21:00:00,42.8,41.7,25.51,North,0,0.0,0.0,96,0.00,,---,0.08,VWS V13.01,2013-05-21 03:00:00,
2013-05-20 21:05:00,42.8,42.0,25.51,North,0,0.0,0.0,97,0.00,,---,0.08,VWS V13.01,2013-05-21 03:05:00,
2013-05-20 21:10:00,43.0,42.2,25.51,North,0,0.0,0.0,97,0.00,,---,0.08,VWS V13.01,2013-05-21 03:10:00,
2013-05-20 21:15:00,43.0,42.5,25.51,North,0,0.0,0.0,98,0.00,,---,0.08,VWS V13.01,2013-05-21 03:15:00,
2013-05-20 21:20:00,42.8,42.3,25.51,North,0,0.0,0.0,98,0.00,,---,0.08,VWS V13.01,2013-05-21 03:20:00,
2013-05-20 21:25:00,43.0,42.5,25.51,North,0,0.0,0.0,98,0.00,,---,0.08,VWS V13.01,2013-05-21 03:25:00,
2013-05-20 21:30:00,43.0,42.5,25.54,North,0,0.0,0.0,98,0.00,,---,0.08,VWS V13.01,2013-05-21 03:30:00,
2013-05-20 21:35:00,43.0,42.5,25.54,North,0,0.0,0.0,98,0.00,,---,0.08,VWS V13.01,2013-05-21 03:35:00,
2013-05-20 21:40:00,43.0,42.5,25.54,North,0,0.0,0.0,98,0.00,,---,0.08,VWS V13.01,2013-05-21 03:40:00,
2013-05-20 21:45:00,43.0,42.5,25.54,North,0,0.0,0.0,98,0.00,,---,0.08,VWS V13.01,2013-05-21 03:45:00,
2013-05-20 21:50:00,43.0,42.5,25.54,North,0,0.0,0.0,98,0.00,,---,0.08,VWS V13.01,2013-05-21 03:50:00,
2013-05-20 21:55:00,43.0,42.5,25.54,North,0,0.0,0.0,98,0.00,,---,0.08,VWS V13.01,2013-05-21 03:55:00,
2013-05-20 22:00:00,43.0,42.5,25.54,North,0,0.0,0.0,98,0.04,,---,0.12,VWS V13.01,2013-05-21 04:00:00,
2013-05-20 22:01:00,42.8,42.3,25.54,North,0,0.0,0.0,98,0.04,,---,0.12,VWS V13.01,2013-05-21 04:01:00,
2013-05-20 22:06:00,42.8,42.3,25.54,North,0,0.0,0.0,98,0.04,,---,0.12,VWS V13.01,2013-05-21 04:06:00,
2013-05-20 22:11:00,42.8,42.3,25.54,North,0,0.0,0.0,98,0.04,,---,0.12,VWS V13.01,2013-05-21 04:11:00,
2013-05-20 22:16:00,42.8,42.3,25.54,North,0,0.0,0.0,98,0.04,,---,0.12,VWS V13.01,2013-05-21 04:16:00,
2013-05-20 22:21:00,42.6,42.1,25.54,North,0,0.0,0.0,98,0.08,,---,0.16,VWS V13.01,2013-05-21 04:21:00,
2013-05-20 22:26:00,42.6,42.1,25.54,North,0,0.0,0.0,98,0.08,,---,0.16,VWS V13.01,2013-05-21 04:26:00,
2013-05-20 22:31:00,42.8,42.3,25.54,North,0,0.0,0.0,98,0.08,,---,0.16,VWS V13.01,2013-05-21 04:31:00,
2013-05-20 22:36:00,42.6,42.1,25.54,North,0,0.0,0.0,98,0.08,,---,0.16,VWS V13.01,2013-05-21 04:36:00,
2013-05-20 22:41:00,42.6,42.1,25.54,North,0,0.0,0.0,98,0.08,,---,0.16,VWS V13.01,2013-05-21 04:41:00,
2013-05-20 22:46:00,42.6,42.1,25.54,North,0,0.0,0.0,98,0.08,,---,0.16,VWS V13.01,2013-05-21 04:46:00,
2013-05-20 22:51:00,42.6,42.1,25.54,North,0,0.0,0.0,98,0.08,,---,0.16,VWS V13.01,2013-05-21 04:51:00,
2013-05-20 22:56:00,42.6,42.1,25.54,North,0,0.0,0.0,98,0.08,,---,0.16,VWS V13.01,2013-05-21 04:56:00,
2013-05-20 23:01:00,42.8,42.3,25.54,North,0,0.0,0.0,98,0.04,,---,0.16,VWS V13.01,2013-05-21 05:01:00,
2013-05-20 23:06:00,42.8,42.3,25.54,North,0,0.0,0.0,98,0.08,,---,0.20,VWS V13.01,2013-05-21 05:06:00,
2013-05-20 23:11:00,42.6,42.1,25.54,North,0,0.0,0.0,98,0.08,,---,0.20,VWS V13.01,2013-05-21 05:11:00,
2013-05-20 23:16:00,42.6,42.1,25.54,North,0,0.0,0.0,98,0.08,,---,0.20,VWS V13.01,2013-05-21 05:16:00,
2013-05-20 23:21:00,42.8,42.3,25.54,North,0,0.0,0.0,98,0.08,,---,0.24,VWS V13.01,2013-05-21 05:21:00,
2013-05-20 23:26:00,42.3,41.7,25.54,North,0,0.0,0.0,98,0.08,,---,0.24,VWS V13.01,2013-05-21 05:26:00,
2013-05-20 23:31:00,42.4,41.9,25.54,North,0,0.0,0.0,98,0.08,,---,0.24,VWS V13.01,2013-05-21 05:31:00,
2013-05-20 23:36:00,42.4,41.9,25.54,North,0,0.0,0.0,98,0.08,,---,0.24,VWS V13.01,2013-05-21 05:36:00,
2013-05-20 23:41:00,42.4,41.9,25.54,North,0,0.0,0.0,98,0.08,,---,0.24,VWS V13.01,2013-05-21 05:41:00,
2013-05-20 23:46:00,42.3,41.7,25.54,North,0,0.0,0.0,98,0.08,,---,0.24,VWS V13.01,2013-05-21 05:46:00,
2013-05-20 23:51:00,42.4,41.9,25.54,North,0,0.0,0.0,98,0.08,,---,0.24,VWS V13.01,2013-05-21 05:51:00,
2013-05-20 23:56:00,42.3,41.7,25.54,North,0,0.0,0.0,98,0.08,,---,0.24,VWS V13.01,2013-05-21 05:56:00,